Time;durP1;ratioP1;P1;durP2;ratioP2;P2;SDS_P1;SDS_P2;PMS_P1;PMS_P2;Temp;Humidity;BMP_temperature;BMP_pressure;BME280_temperature;BME280_humidity;BME280_pressure;Samples;Min_cycle;Max_cycle;Signal;HPM_P1;HPM_P2
2022/03/23 00:02:09;;;;;;;28.35;18.10;;;4.60;99.90;;;;;;5114781;28;20031;-94
2022/03/23 00:04:35;;;;;;;33.28;19.00;;;4.60;99.90;;;;;;5096648;28;20023;-94
2022/03/23 00:07:01;;;;;;;33.95;19.90;;;4.50;99.90;;;;;;5096650;28;20035;-95
2022/03/23 00:09:27;;;;;;;34.75;20.13;;;4.50;99.90;;;;;;5097170;28;20019;-94
2022/03/23 00:12:15;;;;;;;30.83;18.83;;;4.50;99.90;;;;;;5085821;28;20058;-94
2022/03/23 00:14:42;;;;;;;36.35;21.35;;;4.40;99.90;;;;;;5093345;28;20024;-95
2022/03/23 00:17:07;;;;;;;34.25;20.52;;;4.40;99.90;;;;;;5076275;28;20023;-94
2022/03/23 00:20:11;;;;;;;29.25;18.05;;;4.40;99.90;;;;;;5075798;28;20027;-94
2022/03/23 00:22:37;;;;;;;30.90;16.70;;;4.30;99.90;;;;;;5076074;28;20058;-94
2022/03/23 00:25:03;;;;;;;29.65;18.52;;;4.20;99.90;;;;;;5076072;28;20035;-93
2022/03/23 00:27:52;;;;;;;26.15;16.55;;;4.10;99.90;;;;;;5076225;28;20028;-94
2022/03/23 00:30:18;;;;;;;25.58;16.67;;;4.10;99.90;;;;;;5076650;28;20021;-95
2022/03/23 00:32:44;;;;;;;28.15;16.65;;;4.00;99.90;;;;;;5076167;28;20024;-94
2022/03/23 00:35:53;;;;;;;26.65;16.10;;;4.00;99.90;;;;;;5076193;28;20020;-94
2022/03/23 00:38:19;;;;;;;30.40;17.00;;;4.00;99.90;;;;;;5072923;28;20060;-94
2022/03/23 00:44:24;;;;;;;27.58;16.20;;;4.00;99.90;;;;;;5103131;28;20132;-93
2022/03/23 00:46:51;;;;;;;24.45;15.52;;;4.00;99.90;;;;;;5075541;28;20028;-93
2022/03/23 00:49:17;;;;;;;26.35;16.25;;;4.00;99.90;;;;;;5076024;28;20026;-95
2022/03/23 00:51:46;;;;;;;27.42;15.68;;;4.10;99.90;;;;;;5075980;28;20103;-94
2022/03/23 00:54:12;;;;;;;26.00;14.93;;;4.00;99.90;;;;;;5075866;28;20035;-95
2022/03/23 00:56:38;;;;;;;27.83;16.25;;;3.90;99.90;;;;;;5075925;28;20020;-94
2022/03/23 00:59:17;;;;;;;30.27;17.63;;;4.00;99.90;;;;;;5075899;28;20479;-94
2022/03/23 01:01:45;;;;;;;32.00;17.65;;;4.00;99.90;;;;;;5075979;28;20024;-94
2022/03/23 01:04:11;;;;;;;24.98;15.90;;;4.00;99.90;;;;;;5075883;28;20028;-95
2022/03/23 01:07:01;;;;;;;31.13;18.88;;;4.00;99.90;;;;;;5075833;28;20028;-95
2022/03/23 01:09:26;;;;;;;31.20;19.00;;;4.00;99.90;;;;;;5075799;28;20031;-95
2022/03/23 01:11:54;;;;;;;33.50;18.52;;;4.00;99.90;;;;;;5076010;28;20016;-94
2022/03/23 01:14:46;;;;;;;36.97;20.77;;;3.90;99.90;;;;;;5075756;28;20472;-94
2022/03/23 01:17:12;;;;;;;31.30;17.73;;;3.90;99.90;;;;;;5075767;28;20081;-95
2022/03/23 01:19:38;;;;;;;31.33;19.17;;;3.90;99.90;;;;;;5075710;28;20025;-96
2022/03/23 01:25:25;;;;;;;31.23;19.67;;;3.90;99.90;;;;;;5093820;28;20026;-94
2022/03/23 01:27:59;;;;;;;35.50;20.25;;;3.80;99.90;;;;;;5075656;28;20460;-94
2022/03/23 01:30:25;;;;;;;31.05;18.67;;;3.70;99.90;;;;;;5075714;28;20024;-95
2022/03/23 01:32:51;;;;;;;29.58;18.55;;;3.70;99.90;;;;;;5078094;28;20543;-94
2022/03/23 01:35:53;;;;;;;29.33;18.20;;;3.70;99.90;;;;;;5079082;28;20020;-95
2022/03/23 01:38:18;;;;;;;31.67;19.15;;;3.70;99.90;;;;;;5079133;28;20028;-95
2022/03/23 01:40:53;;;;;;;30.38;17.80;;;3.70;99.90;;;;;;5078765;28;20576;-94
2022/03/23 01:43:19;;;;;;;30.10;18.05;;;3.70;99.90;;;;;;5078882;28;20028;-94
2022/03/23 01:45:53;;;;;;;31.30;17.80;;;3.70;99.90;;;;;;5082662;28;20386;-94
2022/03/23 01:48:18;;;;;;;32.17;17.92;;;3.70;99.90;;;;;;5098952;28;20480;-93
2022/03/23 01:50:44;;;;;;;29.30;17.40;;;3.70;99.90;;;;;;5099005;28;20111;-94
2022/03/23 01:54:01;;;;;;;33.00;18.00;;;3.60;99.90;;;;;;5098789;28;20020;-94
2022/03/23 01:56:27;;;;;;;28.77;16.95;;;3.60;99.90;;;;;;5116249;28;20167;-93
2022/03/23 01:59:36;;;;;;;28.10;17.15;;;3.50;99.90;;;;;;5098775;28;20485;-93
2022/03/23 02:18:53;;;;;;;29.05;17.63;;;3.50;99.90;;;;;;5116840;28;20026;-95
2022/03/23 02:24:41;;;;;;;29.92;18.52;;;3.40;99.90;;;;;;5116715;28;20069;-94
2022/03/23 02:30:28;;;;;;;31.05;18.98;;;3.30;99.90;;;;;;5116648;28;20433;-95
2022/03/23 02:36:16;;;;;;;32.58;19.27;;;3.20;99.90;;;;;;5116476;28;20058;-94
2022/03/23 02:46:38;;;;;;;49.25;22.90;;;3.30;99.90;;;;;;5075498;28;20059;-94
2022/03/23 03:01:52;;;;;;;37.67;22.02;;;3.20;99.90;;;;;;5075491;28;20063;-95
2022/03/23 03:02:51;;;;;;;35.22;21.20;;;3.30;99.90;;;;;;4994721;28;20057;-94
2022/03/23 03:08:44;;;;;;;40.03;22.05;;;3.20;99.90;;;;;;4994233;28;20033;-94
2022/03/23 03:14:31;;;;;;;33.03;21.05;;;3.10;99.90;;;;;;4994027;28;20040;-94
2022/03/23 03:17:49;;;;;;;33.33;19.25;;;3.10;99.90;;;;;;4977849;28;20034;-95
2022/03/23 03:20:16;;;;;;;34.67;20.13;;;3.10;99.90;;;;;;4977706;28;20030;-95
2022/03/23 03:22:45;;;;;;;31.33;18.83;;;3.00;99.90;;;;;;4977586;28;20046;-94
2022/03/23 03:28:37;;;;;;;30.05;18.63;;;3.00;99.90;;;;;;5033281;28;20039;-95
2022/03/23 03:31:39;;;;;;;31.15;19.05;;;3.00;99.90;;;;;;5016576;28;20363;-95
2022/03/23 03:34:04;;;;;;;37.08;19.38;;;3.00;99.90;;;;;;5093776;28;20028;-94
2022/03/23 03:36:30;;;;;;;30.33;16.80;;;2.90;99.90;;;;;;5076812;28;20484;-93
2022/03/23 03:39:38;;;;;;;28.40;18.40;;;2.90;99.90;;;;;;5076825;28;20024;-93
2022/03/23 03:42:04;;;;;;;34.60;17.80;;;2.90;99.90;;;;;;5093657;28;20028;-96
2022/03/23 03:44:29;;;;;;;29.73;17.73;;;2.90;99.90;;;;;;5076619;28;20050;-95
2022/03/23 03:50:17;;;;;;;27.35;17.63;;;2.90;99.90;;;;;;5095059;28;20030;-96
2022/03/23 03:56:05;;;;;;;36.85;20.70;;;2.80;99.90;;;;;;5094546;28;20031;-96
2022/03/23 03:58:41;;;;;;;36.67;19.10;;;2.70;99.90;;;;;;5076581;28;20028;-93
2022/03/23 04:01:06;;;;;;;;;;;2.70;99.90;;;;;;5077053;28;20058;-94
2022/03/23 04:03:32;;;;;;;34.75;19.83;;;2.70;99.90;;;;;;5076398;28;19904;-93
2022/03/23 04:06:07;;;;;;;30.83;18.55;;;2.60;99.90;;;;;;5076261;28;20032;-94
2022/03/23 04:08:32;;;;;;;29.77;18.23;;;2.70;99.90;;;;;;5076351;28;20032;-93
2022/03/23 04:10:58;;;;;;;30.95;19.17;;;2.60;99.90;;;;;;5076345;28;20024;-93
2022/03/23 04:13:55;;;;;;;32.28;18.73;;;2.60;99.90;;;;;;5076309;28;20429;-93
2022/03/23 04:16:20;;;;;;;;;;;2.60;99.90;;;;;;5076778;28;20074;-93
2022/03/23 04:22:08;;;;;;;30.05;16.95;;;2.60;99.90;;;;;;5094376;28;20050;-94
2022/03/23 04:25:00;;;;;;;33.03;17.70;;;2.60;99.90;;;;;;5076270;28;20020;-94
2022/03/23 04:27:26;;;;;;;28.63;18.50;;;2.60;99.90;;;;;;5076215;28;20032;-94
2022/03/23 04:29:51;;;;;;;31.85;16.77;;;2.60;99.90;;;;;;5076279;28;20029;-94
2022/03/23 04:35:39;;;;;;;27.38;15.10;;;2.50;99.90;;;;;;5094354;28;20078;-93
2022/03/23 04:41:27;;;;;;;25.30;14.63;;;2.50;99.90;;;;;;5093969;28;20026;-94
2022/03/23 04:43:53;;;;;;;22.17;14.82;;;2.40;99.90;;;;;;5071018;28;20474;-93
2022/03/23 04:49:41;;;;;;;27.23;17.08;;;2.40;99.90;;;;;;5074143;28;20103;-93
2022/03/23 04:52:21;;;;;;;26.77;15.93;;;2.50;99.90;;;;;;5072704;28;20036;-93
2022/03/23 04:54:46;;;;;;;23.60;13.88;;;2.40;99.90;;;;;;5073583;28;20021;-94
2022/03/23 04:57:12;;;;;;;24.23;13.80;;;2.40;99.90;;;;;;5072796;28;20063;-93
2022/03/23 05:00:10;;;;;;;27.90;17.30;;;2.40;99.90;;;;;;5072542;28;20488;-94
2022/03/23 05:02:39;;;;;;;22.10;14.25;;;2.40;99.90;;;;;;5055750;28;20029;-94
2022/03/23 05:05:09;;;;;;;25.15;15.02;;;2.50;99.90;;;;;;5055787;28;20473;-94
2022/03/23 05:07:43;;;;;;;24.45;14.07;;;2.50;99.90;;;;;;5059632;28;20032;-93
2022/03/23 05:10:10;;;;;;;25.73;15.15;;;2.50;99.90;;;;;;5059809;28;20063;-93
2022/03/23 05:12:46;;;;;;;22.70;13.20;;;2.50;99.90;;;;;;5059609;28;20032;-93
2022/03/23 05:15:14;;;;;;;21.40;14.05;;;2.60;99.90;;;;;;5076203;28;20481;-94
2022/03/23 05:17:40;;;;;;;19.50;12.50;;;2.50;99.90;;;;;;5059476;28;20547;-94
2022/03/23 05:23:28;;;;;;;20.77;13.13;;;2.50;99.90;;;;;;5077148;28;20028;-93
2022/03/23 05:26:31;;;;;;;20.92;12.20;;;2.40;99.90;;;;;;5076414;28;20024;-94
2022/03/23 05:28:56;;;;;;;23.67;14.40;;;2.40;99.90;;;;;;5075933;28;20366;-95
2022/03/23 05:31:22;;;;;;;25.08;14.25;;;2.40;99.90;;;;;;5076156;28;20036;-95
2022/03/23 05:34:36;;;;;;;21.83;13.18;;;2.40;99.90;;;;;;5075634;28;20025;-93
2022/03/23 05:37:02;;;;;;;20.85;12.82;;;2.40;99.90;;;;;;5075491;28;20052;-92
2022/03/23 05:39:28;;;;;;;20.00;12.23;;;2.40;99.90;;;;;;5075499;28;20029;-92
2022/03/23 05:42:07;;;;;;;22.50;12.52;;;2.40;99.90;;;;;;5075169;28;20063;-92
2022/03/23 05:44:39;;;;;;;19.35;12.48;;;2.50;99.90;;;;;;5078946;28;20508;-92
2022/03/23 05:47:05;;;;;;;19.10;11.50;;;2.50;99.90;;;;;;5096317;28;20086;-94
2022/03/23 05:49:31;;;;;;;23.98;12.10;;;2.50;99.90;;;;;;5079065;28;20036;-94
2022/03/23 05:55:20;;;;;;;21.33;11.23;;;2.60;99.90;;;;;;5096926;28;20066;-94
2022/03/23 05:58:17;;;;;;;22.10;12.88;;;2.60;99.90;;;;;;5095758;28;20028;-94
2022/03/23 06:00:43;;;;;;;18.92;11.73;;;2.70;99.90;;;;;;5078936;28;20027;-95
2022/03/23 06:06:30;;;;;;;17.98;11.40;;;2.70;99.90;;;;;;5096588;28;20082;-94
2022/03/23 06:08:59;;;;;;;22.48;12.27;;;2.80;99.90;;;;;;5095612;28;20024;-93
2022/03/23 06:11:25;;;;;;;20.17;11.80;;;2.80;99.90;;;;;;5095478;28;20086;-93
2022/03/23 06:13:50;;;;;;;22.10;13.27;;;2.80;99.90;;;;;;5095244;28;20036;-93
2022/03/23 06:16:17;;;;;;;22.20;12.50;;;2.90;99.90;;;;;;5095287;28;20115;-93
2022/03/23 06:18:43;;;;;;;25.88;14.18;;;2.90;99.90;;;;;;5081781;28;20488;-92
2022/03/23 06:21:14;;;;;;;22.83;13.77;;;3.00;99.90;;;;;;5058047;28;20031;-93
2022/03/23 06:23:39;;;;;;;27.80;13.77;;;3.00;99.90;;;;;;5074047;28;20024;-92
2022/03/23 06:26:23;;;;;;;23.45;13.15;;;3.10;99.90;;;;;;5074570;28;20036;-93
2022/03/23 06:28:49;;;;;;;27.27;14.95;;;3.10;99.90;;;;;;5074776;28;20074;-93
2022/03/23 06:31:32;;;;;;;22.77;13.68;;;3.20;99.90;;;;;;5074567;28;20028;-92
2022/03/23 06:33:59;;;;;;;24.10;14.02;;;3.30;99.90;;;;;;5074485;28;20063;-93
2022/03/23 06:39:50;;;;;;;23.30;13.70;;;3.50;99.90;;;;;;5075620;28;20027;-94
2022/03/23 06:42:15;;;;;;;25.45;14.63;;;3.60;99.90;;;;;;5074268;28;20028;-93
2022/03/23 06:44:46;;;;;;;28.05;14.38;;;3.70;99.90;;;;;;5085220;28;20058;-92
2022/03/23 06:47:12;;;;;;;24.15;13.23;;;3.90;99.90;;;;;;5075496;28;20040;-93
2022/03/23 06:50:19;;;;;;;24.92;13.93;;;4.00;99.90;;;;;;5077602;28;20058;-92
2022/03/23 06:52:45;;;;;;;22.55;13.65;;;4.10;99.90;;;;;;5094406;28;20024;-93
2022/03/23 06:55:16;;;;;;;22.23;12.90;;;4.30;99.90;;;;;;5077649;28;20491;-93
2022/03/23 06:57:42;;;;;;;28.10;14.73;;;4.40;99.90;;;;;;5077342;28;20024;-93
2022/03/23 07:00:34;;;;;;;27.63;13.43;;;4.60;99.90;;;;;;5077214;28;20028;-92
2022/03/23 07:03:00;;;;;;;21.10;12.95;;;4.80;99.90;;;;;;5077057;28;20035;-92
2022/03/23 07:05:45;;;;;;;22.48;11.95;;;4.90;99.90;;;;;;5076996;28;20024;-93
2022/03/23 07:11:05;;;;;;;20.60;13.27;;;5.20;99.90;;;;;;5052814;28;20033;-92
2022/03/23 07:13:32;;;;;;;22.25;13.48;;;5.40;99.90;;;;;;5073547;28;20032;-92
2022/03/23 07:16:25;;;;;;;22.65;13.93;;;5.50;99.90;;;;;;5076804;28;20122;-92
2022/03/23 07:18:51;;;;;;;25.77;14.10;;;5.70;99.90;;;;;;5076645;28;20498;-92
2022/03/23 07:31:28;;;;;;;25.35;15.43;;;6.40;99.90;;;;;;5094753;28;20031;-92
2022/03/23 07:33:54;;;;;;;26.13;15.13;;;6.80;99.90;;;;;;5076171;28;20491;-92
2022/03/23 07:36:24;;;;;;;26.08;15.15;;;7.10;99.90;;;;;;5076333;28;20028;-91
2022/03/23 07:38:50;;;;;;;22.38;14.27;;;7.40;98.80;;;;;;5094177;28;20024;-92
2022/03/23 07:41:17;;;;;;;26.20;15.70;;;7.60;99.60;;;;;;5076209;28;20028;-93
2022/03/23 07:43:43;;;;;;;28.30;14.93;;;7.80;97.30;;;;;;5076217;28;20031;-92
2022/03/23 07:46:09;;;;;;;26.35;14.43;;;7.90;89.90;;;;;;5071682;28;20106;-93
2022/03/23 07:48:47;;;;;;;26.05;15.32;;;8.10;80.60;;;;;;5056047;28;20074;-92
2022/03/23 07:51:12;;;;;;;23.10;14.63;;;8.30;77.10;;;;;;5056045;28;20017;-92
2022/03/23 07:57:01;;;;;;;25.35;14.25;;;8.80;66.80;;;;;;5074278;28;20051;-93
2022/03/23 07:59:27;;;;;;;23.08;15.35;;;9.00;56.90;;;;;;5056019;28;20024;-92
2022/03/23 08:05:49;;;;;;;25.83;14.57;;;9.30;53.90;;;;;;5074084;28;20019;-93
2022/03/23 08:08:15;;;;;;;27.98;15.07;;;9.40;56.80;;;;;;5055805;28;20086;-93
2022/03/23 08:10:48;;;;;;;25.20;15.20;;;9.40;52.70;;;;;;5055842;28;20107;-93
2022/03/23 08:13:16;;;;;;;22.48;14.40;;;9.50;52.40;;;;;;5055447;28;20123;-92
2022/03/23 08:15:49;;;;;;;27.88;15.52;;;9.70;51.50;;;;;;5073541;28;20023;-92
2022/03/23 08:18:17;;;;;;;27.42;14.48;;;9.70;51.00;;;;;;5073060;28;20031;-92
2022/03/23 08:20:57;;;;;;;22.08;14.68;;;9.80;52.00;;;;;;5073272;28;20036;-92
2022/03/23 08:23:25;;;;;;;26.77;15.43;;;9.90;52.50;;;;;;5072276;28;20127;-93
2022/03/23 08:25:54;;;;;;;23.08;14.73;;;10.00;50.30;;;;;;5055686;28;20024;-92
2022/03/23 08:28:19;;;;;;;22.60;14.30;;;10.10;50.30;;;;;;5055135;28;20032;-93
2022/03/23 08:34:04;;;;;;;25.25;15.27;;;10.20;48.80;;;;;;5073680;28;20493;-92
2022/03/23 08:36:38;;;;;;;25.30;14.82;;;10.40;50.40;;;;;;5072025;28;20032;-95
2022/03/23 08:39:04;;;;;;;30.02;16.85;;;10.40;50.50;;;;;;5071998;28;20036;-96
2022/03/23 08:41:31;;;;;;;27.33;16.35;;;10.40;47.60;;;;;;5075215;28;20481;-95
2022/03/23 08:43:57;;;;;;;29.02;16.20;;;10.70;47.00;;;;;;5059364;28;20044;-92
2022/03/23 08:46:22;;;;;;;26.45;16.27;;;10.70;46.20;;;;;;5083199;28;20040;-92
2022/03/23 08:49:20;;;;;;;35.63;17.80;;;10.80;46.00;;;;;;5097622;28;20043;-92
2022/03/23 08:51:45;;;;;;;27.45;16.30;;;11.00;45.80;;;;;;5079813;28;20028;-94
2022/03/23 08:54:11;;;;;;;25.80;16.60;;;11.00;44.60;;;;;;5096914;28;20020;-92
2022/03/23 08:56:55;;;;;;;24.33;15.55;;;11.10;43.60;;;;;;5096239;28;20039;-93
2022/03/23 08:59:20;;;;;;;34.95;16.98;;;11.20;44.30;;;;;;5096469;28;20074;-94
2022/03/23 09:02:14;;;;;;;24.58;15.85;;;11.30;43.30;;;;;;5096505;28;20028;-94
2022/03/23 09:04:40;;;;;;;26.63;15.98;;;11.40;44.50;;;;;;5096067;28;20027;-95
2022/03/23 09:07:17;;;;;;;28.38;17.45;;;11.40;44.60;;;;;;5095618;28;20471;-92
2022/03/23 09:09:42;;;;;;;23.88;16.58;;;11.50;45.30;;;;;;5096030;28;20028;-93
2022/03/23 09:12:34;;;;;;;30.50;18.02;;;11.50;46.30;;;;;;5095814;28;20030;-93
2022/03/23 09:15:00;;;;;;;33.30;16.23;;;11.50;47.50;;;;;;5095729;28;20116;-91
2022/03/23 09:17:25;;;;;;;27.20;15.65;;;11.50;47.00;;;;;;5096638;28;20488;-91
2022/03/23 09:19:51;;;;;;;23.58;15.77;;;11.40;47.70;;;;;;5078309;28;20051;-91
2022/03/23 09:22:27;;;;;;;28.73;16.27;;;11.40;47.50;;;;;;5096210;28;20064;-91
2022/03/23 09:24:53;;;;;;;25.90;15.57;;;11.40;47.20;;;;;;5078121;28;20122;-92
2022/03/23 09:27:59;;;;;;;27.17;16.70;;;11.40;48.30;;;;;;5095086;28;20550;-92
2022/03/23 09:30:24;;;;;;;27.33;16.65;;;11.50;51.50;;;;;;5095200;28;20024;-91
2022/03/23 09:32:52;;;;;;;29.15;16.15;;;11.60;52.50;;;;;;5095143;28;20070;-92
2022/03/23 09:35:18;;;;;;;26.58;16.58;;;11.60;50.10;;;;;;5077977;28;20047;-92
2022/03/23 09:37:56;;;;;;;29.00;16.67;;;11.60;49.90;;;;;;5092782;28;20024;-91
2022/03/23 09:40:24;;;;;;;28.52;16.45;;;11.60;49.90;;;;;;5094440;28;20031;-92
2022/03/23 09:43:11;;;;;;;27.20;17.00;;;11.70;50.10;;;;;;5057326;28;20039;-92
2022/03/23 09:48:10;;;;;;;29.80;17.25;;;11.80;50.40;;;;;;5075780;28;20036;-92
2022/03/23 09:50:46;;;;;;;30.42;16.13;;;11.80;50.50;;;;;;5075556;28;20096;-91
2022/03/23 09:53:13;;;;;;;28.88;15.93;;;11.80;49.60;;;;;;5056200;28;20107;-91
2022/03/23 09:55:57;;;;;;;30.83;16.58;;;11.90;49.00;;;;;;5074136;28;20104;-92
2022/03/23 09:58:24;;;;;;;31.45;16.98;;;11.90;49.00;;;;;;5075495;28;20404;-92
2022/03/23 10:00:52;;;;;;;25.50;16.17;;;12.00;49.40;;;;;;5057598;28;20078;-92
2022/03/23 10:03:46;;;;;;;28.80;15.82;;;12.00;48.90;;;;;;5074972;28;20028;-90
2022/03/23 10:06:49;;;;;;;24.88;16.30;;;12.10;49.00;;;;;;5068963;28;20488;-90
2022/03/23 10:09:50;;;;;;;35.10;16.35;;;12.10;49.40;;;;;;5074769;28;20024;-90
2022/03/23 10:12:22;;;;;;;23.20;15.63;;;12.30;50.30;;;;;;5056757;28;20020;-90
2022/03/23 10:15:26;;;;;;;25.85;17.10;;;12.30;49.90;;;;;;5055666;28;20103;-90
2022/03/23 10:18:28;;;;;;;25.60;17.05;;;12.40;49.30;;;;;;5074731;28;20028;-89
2022/03/23 10:20:54;;;;;;;24.40;15.75;;;12.60;48.00;;;;;;5073459;28;20547;-90
2022/03/23 10:23:21;;;;;;;24.92;16.75;;;12.60;47.60;;;;;;5056342;28;20093;-90
2022/03/23 10:25:47;;;;;;;24.58;16.45;;;12.60;47.90;;;;;;5056672;28;20027;-90
2022/03/23 10:28:19;;;;;;;28.63;17.20;;;12.70;46.90;;;;;;5074501;28;20024;-90
2022/03/23 10:30:46;;;;;;;33.20;18.58;;;12.70;46.60;;;;;;5074466;28;20099;-90
2022/03/23 10:33:24;;;;;;;34.05;18.40;;;12.80;46.50;;;;;;5074465;28;20021;-90
2022/03/23 10:35:50;;;;;;;29.35;17.30;;;12.90;47.50;;;;;;5074393;28;20028;-91
2022/03/23 10:38:24;;;;;;;27.45;18.35;;;12.90;46.10;;;;;;5074271;28;20028;-90
2022/03/23 10:40:51;;;;;;;26.08;16.38;;;13.10;46.10;;;;;;5073101;28;20029;-90
2022/03/23 10:43:36;;;;;;;33.67;19.13;;;13.20;46.00;;;;;;5072886;28;20368;-90
2022/03/23 10:46:24;;;;;;;28.98;18.90;;;13.20;45.70;;;;;;5072801;28;20062;-91
2022/03/23 10:49:02;;;;;;;36.50;19.58;;;13.30;46.20;;;;;;5072965;28;20021;-91
2022/03/23 10:51:32;;;;;;;34.47;17.55;;;13.30;45.70;;;;;;5074067;28;20035;-90
2022/03/23 10:54:28;;;;;;;31.67;17.23;;;13.40;45.10;;;;;;5072543;28;20377;-91
2022/03/23 10:56:54;;;;;;;24.80;16.33;;;13.40;45.50;;;;;;5056592;28;20021;-90
2022/03/23 10:59:45;;;;;;;31.10;17.58;;;13.50;44.30;;;;;;5072454;28;20534;-90
2022/03/23 11:02:10;;;;;;;32.58;18.27;;;13.60;43.10;;;;;;5055850;28;20062;-91
2022/03/23 11:04:49;;;;;;;38.63;19.52;;;13.70;42.30;;;;;;5073790;28;20056;-91
2022/03/23 11:07:35;;;;;;;30.95;19.02;;;13.80;42.60;;;;;;5055689;28;20028;-91
2022/03/23 11:15:47;;;;;;;26.20;17.08;;;13.90;42.60;;;;;;5073658;28;20093;-90
2022/03/23 11:18:18;;;;;;;29.95;17.02;;;14.00;43.40;;;;;;5073647;28;20042;-90
2022/03/23 11:20:56;;;;;;;30.38;17.35;;;14.00;41.70;;;;;;5073360;28;20379;-91
2022/03/23 11:23:35;;;;;;;38.70;18.02;;;14.10;41.60;;;;;;5055429;28;20032;-91
2022/03/23 11:26:11;;;;;;;59.42;22.65;;;14.20;41.70;;;;;;5062855;28;20028;-90
2022/03/23 11:28:43;;;;;;;22.85;16.67;;;14.20;42.70;;;;;;5092600;28;20056;-91
2022/03/23 11:31:17;;;;;;;25.80;18.55;;;14.20;42.50;;;;;;5079576;28;20372;-90
2022/03/23 11:33:50;;;;;;;33.17;19.17;;;14.30;41.60;;;;;;5040390;28;20025;-91
2022/03/23 11:36:19;;;;;;;37.85;18.00;;;14.30;41.80;;;;;;5052942;28;20012;-91
2022/03/23 11:38:48;;;;;;;33.10;18.48;;;14.40;41.90;;;;;;5093574;28;20031;-90
2022/03/23 11:41:54;;;;;;;27.85;17.75;;;14.40;41.10;;;;;;5075058;28;20027;-91
2022/03/23 11:44:23;;;;;;;29.75;18.10;;;14.40;41.40;;;;;;5093236;28;20025;-91
2022/03/23 11:46:51;;;;;;;31.10;18.95;;;14.40;40.60;;;;;;5092531;28;20055;-91
2022/03/23 11:49:34;;;;;;;27.30;19.58;;;14.40;40.60;;;;;;5093285;28;20036;-91
2022/03/23 11:52:32;;;;;;;25.33;18.13;;;14.50;41.00;;;;;;5074992;28;20027;-91
2022/03/23 11:55:38;;;;;;;25.00;17.98;;;14.50;41.40;;;;;;5090516;28;20024;-91
2022/03/23 11:58:05;;;;;;;26.13;17.50;;;14.60;41.20;;;;;;5091991;28;20492;-91
2022/03/23 12:01:12;;;;;;;32.58;18.73;;;14.70;40.80;;;;;;5091878;28;20028;-90
2022/03/23 12:03:40;;;;;;;30.13;18.30;;;14.70;41.20;;;;;;5055980;28;20537;-91
2022/03/23 12:06:23;;;;;;;33.78;18.15;;;14.70;39.70;;;;;;5077748;28;20024;-91
2022/03/23 12:08:59;;;;;;;28.08;19.35;;;14.70;40.00;;;;;;5052570;28;20067;-90
2022/03/23 12:11:31;;;;;;;;;;;14.80;40.30;;;;;;5078807;28;20464;-91
2022/03/23 12:14:03;;;;;;;28.27;17.80;;;14.90;40.30;;;;;;5074905;28;20042;-91
2022/03/23 12:16:53;;;;;;;27.88;19.20;;;14.90;40.40;;;;;;5092258;28;20032;-90
2022/03/23 12:19:24;;;;;;;31.88;19.33;;;14.90;40.80;;;;;;5086999;28;20047;-92
2022/03/23 12:22:23;;;;;;;33.47;18.90;;;15.00;41.30;;;;;;5092864;28;20036;-92
2022/03/23 12:25:32;;;;;;;41.03;20.60;;;15.10;40.20;;;;;;5093333;28;20495;-92
2022/03/23 12:28:32;;;;;;;30.45;18.50;;;15.20;39.30;;;;;;5093044;28;20046;-93
2022/03/23 12:30:58;;;;;;;33.45;19.27;;;15.30;39.00;;;;;;5091948;28;20020;-91
2022/03/23 12:34:09;;;;;;;30.55;18.90;;;15.40;38.50;;;;;;5074904;28;20024;-92
2022/03/23 12:39:24;;;;;;;24.98;16.15;;;15.50;37.50;;;;;;5092831;28;20070;-90
2022/03/23 12:41:50;;;;;;;33.30;16.85;;;15.50;37.60;;;;;;5092254;28;20050;-91
2022/03/23 12:44:15;;;;;;;23.58;16.60;;;15.60;36.90;;;;;;5092656;28;20032;-91
2022/03/23 12:46:48;;;;;;;21.25;14.80;;;15.70;36.40;;;;;;5090709;28;20048;-91
2022/03/23 12:59:02;;;;;;;21.70;15.77;;;16.10;35.60;;;;;;5072535;28;20397;-91
2022/03/23 13:01:46;;;;;;;24.00;15.73;;;16.10;35.00;;;;;;5072530;28;20423;-91
2022/03/23 13:04:44;;;;;;;24.08;16.77;;;16.30;34.70;;;;;;5077481;28;20400;-92
2022/03/23 13:07:48;;;;;;;23.92;16.13;;;16.30;34.60;;;;;;5074160;28;20069;-92
2022/03/23 13:10:24;;;;;;;22.40;15.95;;;16.30;34.70;;;;;;5071395;28;20056;-90
2022/03/23 13:12:50;;;;;;;21.40;15.50;;;16.40;35.80;;;;;;5092472;28;20051;-90
2022/03/23 13:15:22;;;;;;;22.42;16.50;;;16.30;35.50;;;;;;5067168;28;20040;-91
2022/03/23 13:17:48;;;;;;;23.20;16.02;;;16.30;35.50;;;;;;5071056;28;20380;-91
2022/03/23 13:20:27;;;;;;;30.00;18.65;;;16.40;35.10;;;;;;5072391;28;20024;-92
2022/03/23 13:22:53;;;;;;;20.92;15.93;;;16.40;34.50;;;;;;5072078;28;20392;-91
2022/03/23 13:25:19;;;;;;;20.67;16.05;;;16.50;34.60;;;;;;5085430;28;20047;-90
2022/03/23 13:27:48;;;;;;;21.65;15.55;;;16.50;34.40;;;;;;5074689;28;20028;-91
2022/03/23 13:31:03;;;;;;;31.08;16.33;;;16.60;34.40;;;;;;5075722;28;20469;-92
2022/03/23 13:33:40;;;;;;;25.58;16.13;;;16.70;33.80;;;;;;5075778;28;20108;-91
2022/03/23 13:36:09;;;;;;;23.90;16.85;;;16.70;33.60;;;;;;5075641;28;20093;-91
2022/03/23 13:38:43;;;;;;;23.30;16.75;;;16.90;33.40;;;;;;5075333;28;20017;-92
2022/03/23 13:47:35;;;;;;;26.17;15.55;;;17.10;33.80;;;;;;5095738;28;20094;-92
2022/03/23 13:50:06;;;;;;;23.42;16.50;;;17.20;33.00;;;;;;5077688;28;20480;-92
2022/03/23 13:52:31;;;;;;;27.20;16.77;;;17.30;32.30;;;;;;5077261;28;20025;-92
2022/03/23 13:55:16;;;;;;;24.95;16.65;;;17.40;32.00;;;;;;5077670;28;20028;-92
2022/03/23 13:57:46;;;;;;;24.42;15.85;;;17.50;32.50;;;;;;5095185;28;20031;-90
2022/03/23 14:00:57;;;;;;;28.58;14.30;;;17.60;32.00;;;;;;5076542;28;20058;-92
2022/03/23 14:03:32;;;;;;;20.58;15.23;;;17.60;32.50;;;;;;5075727;28;20115;-92
2022/03/23 14:06:36;;;;;;;21.23;15.93;;;17.60;32.70;;;;;;5095356;28;20020;-91
2022/03/23 14:09:05;;;;;;;29.08;17.48;;;17.60;33.40;;;;;;5095386;28;20075;-92
2022/03/23 14:12:17;;;;;;;23.23;16.83;;;17.60;32.30;;;;;;5093370;28;20407;-91
2022/03/23 14:14:37;;;;;;;32.10;16.50;;;17.60;33.30;;;;;;5089456;28;20040;-93
2022/03/23 14:17:31;;;;;;;28.38;15.32;;;17.70;33.90;;;;;;5082406;28;20107;-92
2022/03/23 14:19:58;;;;;;;21.98;15.50;;;17.70;32.40;;;;;;5074940;28;20357;-92
2022/03/23 14:22:26;;;;;;;23.65;15.15;;;17.70;32.40;;;;;;5073285;28;20017;-91
2022/03/23 14:24:57;;;;;;;25.02;16.67;;;17.90;33.60;;;;;;5074784;28;20020;-91
2022/03/23 14:27:27;;;;;;;26.08;16.85;;;18.00;32.50;;;;;;5088575;28;20496;-91
2022/03/23 14:30:02;;;;;;;24.83;16.35;;;18.00;31.70;;;;;;5077265;28;20024;-92
2022/03/23 14:32:37;;;;;;;23.88;16.38;;;17.90;31.80;;;;;;5094884;28;20016;-92
2022/03/23 14:35:11;;;;;;;23.35;16.10;;;17.90;32.20;;;;;;5077384;28;20039;-92
2022/03/23 14:37:42;;;;;;;20.20;15.10;;;17.90;32.10;;;;;;5076533;28;20484;-93
2022/03/23 14:40:31;;;;;;;26.02;17.40;;;18.00;32.10;;;;;;5076236;28;20032;-91
2022/03/23 14:43:02;;;;;;;25.67;18.42;;;18.00;31.80;;;;;;5061409;28;20032;-92
2022/03/23 14:45:54;;;;;;;25.13;16.58;;;18.00;31.20;;;;;;5056692;28;20492;-93
2022/03/23 14:48:35;;;;;;;21.13;16.00;;;18.00;31.40;;;;;;5074220;28;20040;-91
2022/03/23 14:51:03;;;;;;;24.27;16.63;;;18.00;31.50;;;;;;5073360;28;20028;-93
2022/03/23 14:53:40;;;;;;;24.35;16.05;;;18.00;31.80;;;;;;5067092;28;20055;-92
2022/03/23 14:56:06;;;;;;;27.98;16.98;;;17.90;31.50;;;;;;5054222;28;20076;-91
2022/03/23 14:58:34;;;;;;;26.75;17.25;;;18.00;31.90;;;;;;5040964;28;20029;-91
2022/03/23 15:01:06;;;;;;;26.77;17.83;;;18.00;32.00;;;;;;5043614;28;20025;-91
2022/03/23 15:03:33;;;;;;;27.75;16.45;;;18.00;32.00;;;;;;5050887;28;20025;-91
2022/03/23 15:14:13;;;;;;;27.77;17.23;;;17.90;31.90;;;;;;5034201;28;20109;-91
2022/03/23 15:16:42;;;;;;;30.83;17.25;;;17.90;32.10;;;;;;5032661;28;20453;-91
2022/03/23 15:19:08;;;;;;;23.10;16.67;;;17.90;32.00;;;;;;5033716;28;20022;-91
2022/03/23 15:21:42;;;;;;;22.50;16.23;;;17.90;32.00;;;;;;5033546;28;20022;-91
2022/03/23 15:24:08;;;;;;;27.33;17.13;;;17.90;32.60;;;;;;5033731;28;20073;-92
2022/03/23 15:26:36;;;;;;;26.48;16.80;;;17.90;32.10;;;;;;5033765;28;20036;-91
2022/03/23 15:29:02;;;;;;;23.15;16.38;;;18.00;32.10;;;;;;5033647;28;20025;-91
2022/03/23 15:31:28;;;;;;;25.77;17.73;;;18.00;32.30;;;;;;5033669;28;20065;-92
2022/03/23 15:33:54;;;;;;;26.67;17.45;;;17.90;32.10;;;;;;5033444;28;20373;-92
2022/03/23 15:36:24;;;;;;;29.55;16.63;;;17.90;31.80;;;;;;5032301;28;20022;-91
2022/03/23 15:38:50;;;;;;;36.38;19.13;;;17.90;32.00;;;;;;5015889;28;20377;-92
2022/03/23 15:41:17;;;;;;;29.83;18.73;;;17.90;32.80;;;;;;5015985;28;20527;-92
2022/03/23 15:44:05;;;;;;;22.95;16.98;;;18.10;31.70;;;;;;5015809;28;20095;-91
2022/03/23 15:46:51;;;;;;;21.42;15.77;;;18.10;31.70;;;;;;5034122;28;20025;-91